sensor_id;sensor_type;location;lat;lon;timestamp;pressure;altitude;pressure_sealevel;temperature;humidity
9035;BME280;4552;43.422;24.592;2023-06-22T00:18:48;100135.91;;;20.77;100.00
9035;BME280;4552;43.422;24.592;2023-06-22T00:21:15;100125.97;;;20.81;100.00
9035;BME280;4552;43.422;24.592;2023-06-22T00:23:42;100110.31;;;20.92;100.00
9035;BME280;4552;43.422;24.592;2023-06-22T00:26:09;100116.13;;;21.00;100.00
9035;BME280;4552;43.422;24.592;2023-06-22T00:31:58;100110.97;;;20.97;100.00
9035;BME280;4552;43.422;24.592;2023-06-22T00:34:26;100117.59;;;20.88;100.00
9035;BME280;4552;43.422;24.592;2023-06-22T00:36:53;100125.75;;;20.85;100.00
9035;BME280;4552;43.422;24.592;2023-06-22T00:39:20;100113.47;;;20.83;100.00
9035;BME280;4552;43.422;24.592;2023-06-22T00:41:47;100098.78;;;20.58;100.00
9035;BME280;4552;43.422;24.592;2023-06-22T01:04:47;100124.03;;;20.84;100.00
9035;BME280;4552;43.422;24.592;2023-06-22T01:07:21;100118.41;;;20.73;100.00
9035;BME280;4552;43.422;24.592;2023-06-22T01:09:56;100118.66;;;20.69;100.00
9035;BME280;4552;43.422;24.592;2023-06-22T01:12:25;100120.03;;;20.76;100.00
9035;BME280;4552;43.422;24.592;2023-06-22T01:14:57;100135.69;;;20.82;100.00
9035;BME280;4552;43.422;24.592;2023-06-22T01:17:26;100131.88;;;20.70;100.00
9035;BME280;4552;43.422;24.592;2023-06-22T01:19:55;100136.78;;;20.78;100.00
9035;BME280;4552;43.422;24.592;2023-06-22T01:22:25;100136.56;;;20.65;100.00
9035;BME280;4552;43.422;24.592;2023-06-22T01:25:00;100130.72;;;20.58;100.00
9035;BME280;4552;43.422;24.592;2023-06-22T01:27:39;100144.28;;;20.52;100.00
9035;BME280;4552;43.422;24.592;2023-06-22T01:30:10;100144.16;;;20.38;100.00
9035;BME280;4552;43.422;24.592;2023-06-22T01:32:38;100147.28;;;20.46;100.00
9035;BME280;4552;43.422;24.592;2023-06-22T01:35:08;100139.75;;;20.37;100.00
9035;BME280;4552;43.422;24.592;2023-06-22T01:37:37;100133.97;;;20.29;100.00
9035;BME280;4552;43.422;24.592;2023-06-22T01:40:05;100128.75;;;20.09;100.00
9035;BME280;4552;43.422;24.592;2023-06-22T01:42:34;100132.63;;;20.21;100.00
9035;BME280;4552;43.422;24.592;2023-06-22T01:45:02;100140.16;;;20.11;100.00
9035;BME280;4552;43.422;24.592;2023-06-22T01:47:31;100146.72;;;20.04;100.00
9035;BME280;4552;43.422;24.592;2023-06-22T01:49:58;100141.56;;;20.01;100.00
9035;BME280;4552;43.422;24.592;2023-06-22T01:52:25;100124.19;;;19.94;100.00
9035;BME280;4552;43.422;24.592;2023-06-22T01:54:52;100140.75;;;19.99;100.00
9035;BME280;4552;43.422;24.592;2023-06-22T02:10:49;100155.50;;;19.88;100.00
9035;BME280;4552;43.422;24.592;2023-06-22T02:39:31;100155.59;;;19.68;100.00
9035;BME280;4552;43.422;24.592;2023-06-22T02:41:58;100150.72;;;19.77;100.00
9035;BME280;4552;43.422;24.592;2023-06-22T02:44:25;100152.34;;;19.98;100.00
9035;BME280;4552;43.422;24.592;2023-06-22T02:46:52;100155.44;;;19.89;100.00
9035;BME280;4552;43.422;24.592;2023-06-22T02:49:19;100154.44;;;19.73;100.00
9035;BME280;4552;43.422;24.592;2023-06-22T02:51:47;100154.88;;;19.83;100.00
9035;BME280;4552;43.422;24.592;2023-06-22T02:54:14;100160.19;;;19.83;100.00
9035;BME280;4552;43.422;24.592;2023-06-22T02:56:43;100163.06;;;19.78;100.00
9035;BME280;4552;43.422;24.592;2023-06-22T02:59:10;100162.91;;;19.81;100.00
9035;BME280;4552;43.422;24.592;2023-06-22T03:01:37;100162.47;;;19.90;100.00
9035;BME280;4552;43.422;24.592;2023-06-22T03:04:06;100160.47;;;19.95;100.00
9035;BME280;4552;43.422;24.592;2023-06-22T03:06:34;100159.28;;;20.19;100.00
9035;BME280;4552;43.422;24.592;2023-06-22T03:09:02;100161.94;;;20.19;100.00
9035;BME280;4552;43.422;24.592;2023-06-22T03:11:30;100176.41;;;20.14;100.00
9035;BME280;4552;43.422;24.592;2023-06-22T03:13:58;100171.50;;;20.40;100.00
9035;BME280;4552;43.422;24.592;2023-06-22T03:16:25;100185.06;;;20.53;100.00
9035;BME280;4552;43.422;24.592;2023-06-22T03:19:03;100183.59;;;20.65;100.00
9035;BME280;4552;43.422;24.592;2023-06-22T03:21:30;100178.66;;;20.74;100.00
9035;BME280;4552;43.422;24.592;2023-06-22T03:23:57;100185.16;;;20.69;100.00
9035;BME280;4552;43.422;24.592;2023-06-22T03:26:24;100185.94;;;20.88;100.00
9035;BME280;4552;43.422;24.592;2023-06-22T03:39:28;100203.00;;;21.35;100.00
9035;BME280;4552;43.422;24.592;2023-06-22T03:41:55;100200.09;;;21.39;100.00
9035;BME280;4552;43.422;24.592;2023-06-22T04:11:19;100199.25;;;21.87;98.61
9035;BME280;4552;43.422;24.592;2023-06-22T04:52:18;100252.34;;;28.27;61.09
9035;BME280;4552;43.422;24.592;2023-06-22T04:54:45;100256.94;;;27.70;61.99
9035;BME280;4552;43.422;24.592;2023-06-22T04:57:16;100258.19;;;27.66;63.03
9035;BME280;4552;43.422;24.592;2023-06-22T04:59:43;100258.78;;;28.35;59.28
9035;BME280;4552;43.422;24.592;2023-06-22T05:02:10;100268.53;;;28.81;56.47
9035;BME280;4552;43.422;24.592;2023-06-22T05:04:37;100273.03;;;28.80;56.18
9035;BME280;4552;43.422;24.592;2023-06-22T05:07:04;100275.97;;;27.90;60.17
9035;BME280;4552;43.422;24.592;2023-06-22T05:09:33;100277.31;;;28.07;60.18
9035;BME280;4552;43.422;24.592;2023-06-22T05:12:01;100285.66;;;28.26;59.02
9035;BME280;4552;43.422;24.592;2023-06-22T05:17:52;100257.66;;;26.44;67.69
9035;BME280;4552;43.422;24.592;2023-06-22T05:20:19;100263.44;;;26.51;67.02
9035;BME280;4552;43.422;24.592;2023-06-22T05:22:47;100269.59;;;25.41;73.34
9035;BME280;4552;43.422;24.592;2023-06-22T05:25:16;100268.88;;;25.25;73.93
9035;BME280;4552;43.422;24.592;2023-06-22T05:27:43;100267.19;;;25.24;75.15
9035;BME280;4552;43.422;24.592;2023-06-22T05:30:11;100265.72;;;25.83;72.28
9035;BME280;4552;43.422;24.592;2023-06-22T05:32:38;100265.59;;;25.97;71.05
9035;BME280;4552;43.422;24.592;2023-06-22T05:35:06;100268.72;;;25.79;71.85
9035;BME280;4552;43.422;24.592;2023-06-22T05:37:33;100271.31;;;25.42;74.38
9035;BME280;4552;43.422;24.592;2023-06-22T05:40:00;100272.38;;;25.65;72.45
9035;BME280;4552;43.422;24.592;2023-06-22T05:42:30;100279.97;;;26.57;68.66
9035;BME280;4552;43.422;24.592;2023-06-22T06:03:17;100286.47;;;27.26;62.92
9035;BME280;4552;43.422;24.592;2023-06-22T06:05:44;100292.16;;;27.45;62.76
9035;BME280;4552;43.422;24.592;2023-06-22T06:08:12;100291.44;;;27.54;62.51
9035;BME280;4552;43.422;24.592;2023-06-22T06:10:39;100302.47;;;27.84;59.88
9035;BME280;4552;43.422;24.592;2023-06-22T06:13:05;100298.25;;;28.25;59.71
9035;BME280;4552;43.422;24.592;2023-06-22T06:15:33;100301.69;;;28.92;56.58
9035;BME280;4552;43.422;24.592;2023-06-22T06:18:00;100296.13;;;29.16;55.19
9035;BME280;4552;43.422;24.592;2023-06-22T06:20:31;100298.06;;;28.71;56.76
9035;BME280;4552;43.422;24.592;2023-06-22T06:22:58;100295.16;;;28.52;57.97
9035;BME280;4552;43.422;24.592;2023-06-22T06:25:27;100296.88;;;28.42;58.11
9035;BME280;4552;43.422;24.592;2023-06-22T06:28:21;100292.16;;;28.88;57.09
9035;BME280;4552;43.422;24.592;2023-06-22T06:30:56;100274.06;;;29.11;56.29
9035;BME280;4552;43.422;24.592;2023-06-22T06:33:28;100292.38;;;29.48;54.58
9035;BME280;4552;43.422;24.592;2023-06-22T06:35:58;100287.19;;;29.36;55.97
9035;BME280;4552;43.422;24.592;2023-06-22T06:38:27;100277.50;;;29.13;55.34
9035;BME280;4552;43.422;24.592;2023-06-22T06:40:54;100279.50;;;29.72;54.55
9035;BME280;4552;43.422;24.592;2023-06-22T06:43:27;100289.00;;;29.97;53.41
9035;BME280;4552;43.422;24.592;2023-06-22T06:45:54;100283.00;;;29.63;53.09
9035;BME280;4552;43.422;24.592;2023-06-22T06:48:21;100272.22;;;29.11;55.28
9035;BME280;4552;43.422;24.592;2023-06-22T06:50:48;100273.13;;;28.58;58.41
9035;BME280;4552;43.422;24.592;2023-06-22T06:53:17;100278.63;;;28.99;57.93
9035;BME280;4552;43.422;24.592;2023-06-22T06:55:45;100286.56;;;28.69;59.05
9035;BME280;4552;43.422;24.592;2023-06-22T06:58:14;100282.13;;;28.79;59.09
9035;BME280;4552;43.422;24.592;2023-06-22T07:00:41;100272.53;;;28.86;58.73
9035;BME280;4552;43.422;24.592;2023-06-22T07:37:55;100291.72;;;29.04;57.06
9035;BME280;4552;43.422;24.592;2023-06-22T07:40:25;100287.97;;;29.47;55.62
9035;BME280;4552;43.422;24.592;2023-06-22T07:49:39;100274.63;;;28.83;63.42
9035;BME280;4552;43.422;24.592;2023-06-22T07:52:06;100270.56;;;28.56;64.26
9035;BME280;4552;43.422;24.592;2023-06-22T07:54:34;100264.34;;;28.77;62.49
9035;BME280;4552;43.422;24.592;2023-06-22T07:57:04;100266.09;;;28.98;62.37
9035;BME280;4552;43.422;24.592;2023-06-22T07:59:31;100275.44;;;29.26;60.64
9035;BME280;4552;43.422;24.592;2023-06-22T08:01:58;100277.63;;;29.11;60.01
9035;BME280;4552;43.422;24.592;2023-06-22T08:04:25;100264.31;;;28.88;59.98
9035;BME280;4552;43.422;24.592;2023-06-22T08:06:52;100266.84;;;29.00;60.13
9035;BME280;4552;43.422;24.592;2023-06-22T08:09:19;100270.91;;;29.26;61.27
9035;BME280;4552;43.422;24.592;2023-06-22T08:12:09;100262.72;;;28.96;61.62
9035;BME280;4552;43.422;24.592;2023-06-22T08:49:57;100247.66;;;29.76;52.57
9035;BME280;4552;43.422;24.592;2023-06-22T08:52:25;100256.53;;;30.17;52.63
9035;BME280;4552;43.422;24.592;2023-06-22T08:54:52;100244.88;;;30.17;51.64
9035;BME280;4552;43.422;24.592;2023-06-22T08:57:28;100256.56;;;29.87;50.65
9035;BME280;4552;43.422;24.592;2023-06-22T08:59:56;100257.22;;;30.10;51.99
9035;BME280;4552;43.422;24.592;2023-06-22T09:02:23;100241.81;;;30.01;51.67
9035;BME280;4552;43.422;24.592;2023-06-22T09:04:52;100251.59;;;30.22;52.83
9035;BME280;4552;43.422;24.592;2023-06-22T09:07:22;100250.22;;;30.38;52.70
9035;BME280;4552;43.422;24.592;2023-06-22T09:09:55;100244.88;;;30.57;52.79
9035;BME280;4552;43.422;24.592;2023-06-22T09:12:25;100247.84;;;30.63;51.23
9035;BME280;4552;43.422;24.592;2023-06-22T09:34:54;100245.84;;;30.56;48.15
9035;BME280;4552;43.422;24.592;2023-06-22T09:37:20;100240.03;;;30.51;47.86
9035;BME280;4552;43.422;24.592;2023-06-22T09:39:47;100247.69;;;30.46;48.12
9035;BME280;4552;43.422;24.592;2023-06-22T09:42:14;100229.94;;;30.72;48.22
9035;BME280;4552;43.422;24.592;2023-06-22T09:44:49;100246.50;;;31.16;46.06
9035;BME280;4552;43.422;24.592;2023-06-22T09:47:16;100247.19;;;31.18;45.68
9035;BME280;4552;43.422;24.592;2023-06-22T09:49:43;100249.91;;;30.99;45.94
9035;BME280;4552;43.422;24.592;2023-06-22T09:52:15;100248.00;;;30.71;46.70
9035;BME280;4552;43.422;24.592;2023-06-22T09:54:42;100229.63;;;30.56;46.52
9035;BME280;4552;43.422;24.592;2023-06-22T09:57:09;100234.41;;;30.92;46.61
9035;BME280;4552;43.422;24.592;2023-06-22T09:59:38;100245.03;;;31.22;45.21
9035;BME280;4552;43.422;24.592;2023-06-22T10:02:14;100234.66;;;30.98;44.26
9035;BME280;4552;43.422;24.592;2023-06-22T10:04:42;100244.31;;;31.20;43.81
9035;BME280;4552;43.422;24.592;2023-06-22T10:07:09;100240.34;;;31.24;43.05
9035;BME280;4552;43.422;24.592;2023-06-22T10:09:38;100240.94;;;31.18;42.74
9035;BME280;4552;43.422;24.592;2023-06-22T10:12:05;100237.22;;;30.81;43.59
9035;BME280;4552;43.422;24.592;2023-06-22T10:14:33;100229.25;;;31.08;44.67
9035;BME280;4552;43.422;24.592;2023-06-22T10:17:00;100243.50;;;31.00;44.51
9035;BME280;4552;43.422;24.592;2023-06-22T10:19:27;100241.06;;;31.16;44.79
9035;BME280;4552;43.422;24.592;2023-06-22T10:21:54;100241.66;;;30.91;43.96
9035;BME280;4552;43.422;24.592;2023-06-22T10:24:21;100232.38;;;30.94;45.71
9035;BME280;4552;43.422;24.592;2023-06-22T10:26:49;100235.38;;;31.19;45.03
9035;BME280;4552;43.422;24.592;2023-06-22T10:29:16;100221.84;;;31.29;45.17
9035;BME280;4552;43.422;24.592;2023-06-22T10:31:43;100222.97;;;31.36;45.51
9035;BME280;4552;43.422;24.592;2023-06-22T10:58:54;100214.94;;;32.00;41.24
9035;BME280;4552;43.422;24.592;2023-06-22T11:01:21;100215.69;;;31.92;40.05
9035;BME280;4552;43.422;24.592;2023-06-22T11:03:48;100208.78;;;32.07;38.85
9035;BME280;4552;43.422;24.592;2023-06-22T11:06:20;100196.09;;;32.25;37.61
9035;BME280;4552;43.422;24.592;2023-06-22T11:08:48;100209.75;;;32.16;38.34
9035;BME280;4552;43.422;24.592;2023-06-22T11:11:15;100200.44;;;32.18;38.97
9035;BME280;4552;43.422;24.592;2023-06-22T11:13:57;100206.56;;;32.65;38.93
9035;BME280;4552;43.422;24.592;2023-06-22T11:16:24;100208.16;;;32.13;38.37
9035;BME280;4552;43.422;24.592;2023-06-22T11:18:52;100201.75;;;31.87;38.83
9035;BME280;4552;43.422;24.592;2023-06-22T11:21:19;100212.56;;;31.87;40.16
9035;BME280;4552;43.422;24.592;2023-06-22T11:23:46;100202.91;;;32.39;39.05
9035;BME280;4552;43.422;24.592;2023-06-22T11:26:14;100202.78;;;32.75;37.21
9035;BME280;4552;43.422;24.592;2023-06-22T11:28:44;100205.88;;;32.63;37.82
9035;BME280;4552;43.422;24.592;2023-06-22T11:31:20;100196.50;;;32.30;37.87
9035;BME280;4552;43.422;24.592;2023-06-22T11:33:47;100202.84;;;32.48;38.35
9035;BME280;4552;43.422;24.592;2023-06-22T11:36:15;100206.19;;;32.77;38.37
9035;BME280;4552;43.422;24.592;2023-06-22T11:38:42;100200.91;;;33.11;38.24
9035;BME280;4552;43.422;24.592;2023-06-22T11:41:10;100197.44;;;32.83;37.83
9035;BME280;4552;43.422;24.592;2023-06-22T11:50:22;100200.22;;;32.56;38.67
9035;BME280;4552;43.422;24.592;2023-06-22T11:52:49;100189.88;;;32.87;38.50
9035;BME280;4552;43.422;24.592;2023-06-22T11:55:19;100204.66;;;32.30;39.02
9035;BME280;4552;43.422;24.592;2023-06-22T11:57:54;100179.84;;;32.25;39.33
9035;BME280;4552;43.422;24.592;2023-06-22T12:13:50;100181.16;;;32.21;41.38
9035;BME280;4552;43.422;24.592;2023-06-22T12:16:17;100180.81;;;32.34;41.48
9035;BME280;4552;43.422;24.592;2023-06-22T12:18:44;100179.16;;;32.50;40.29
9035;BME280;4552;43.422;24.592;2023-06-22T12:21:11;100184.25;;;32.53;40.49
9035;BME280;4552;43.422;24.592;2023-06-22T12:23:44;100170.63;;;32.18;39.83
9035;BME280;4552;43.422;24.592;2023-06-22T12:26:11;100164.34;;;32.00;40.64
9035;BME280;4552;43.422;24.592;2023-06-22T12:28:38;100168.78;;;32.19;42.11
9035;BME280;4552;43.422;24.592;2023-06-22T12:31:06;100171.03;;;31.96;41.19
9035;BME280;4552;43.422;24.592;2023-06-22T12:33:33;100156.66;;;32.40;40.52
9035;BME280;4552;43.422;24.592;2023-06-22T12:36:00;100162.06;;;32.40;41.71
9035;BME280;4552;43.422;24.592;2023-06-22T12:38:29;100168.38;;;32.41;41.27
9035;BME280;4552;43.422;24.592;2023-06-22T12:40:55;100170.28;;;32.04;40.77
9035;BME280;4552;43.422;24.592;2023-06-22T13:20:02;100152.84;;;32.33;41.00
9035;BME280;4552;43.422;24.592;2023-06-22T13:22:31;100144.59;;;32.25;42.02
9035;BME280;4552;43.422;24.592;2023-06-22T13:45:43;100141.31;;;31.77;40.66
9035;BME280;4552;43.422;24.592;2023-06-22T13:48:10;100128.59;;;31.87;40.80
9035;BME280;4552;43.422;24.592;2023-06-22T13:50:43;100126.41;;;32.00;39.99
9035;BME280;4552;43.422;24.592;2023-06-22T13:53:13;100119.75;;;32.12;40.76
9035;BME280;4552;43.422;24.592;2023-06-22T13:55:41;100128.03;;;32.55;39.58
9035;BME280;4552;43.422;24.592;2023-06-22T13:58:08;100140.16;;;32.69;39.79
9035;BME280;4552;43.422;24.592;2023-06-22T14:00:35;100133.47;;;32.98;38.93
9035;BME280;4552;43.422;24.592;2023-06-22T14:03:14;100123.19;;;32.84;38.98
9035;BME280;4552;43.422;24.592;2023-06-22T14:05:43;100121.19;;;33.37;38.52
9035;BME280;4552;43.422;24.592;2023-06-22T14:08:11;100137.69;;;33.18;38.99
9035;BME280;4552;43.422;24.592;2023-06-22T15:55:14;100071.91;;;32.03;45.47
9035;BME280;4552;43.422;24.592;2023-06-22T15:57:41;100082.75;;;32.03;45.20
9035;BME280;4552;43.422;24.592;2023-06-22T16:00:31;100064.44;;;32.05;46.14
9035;BME280;4552;43.422;24.592;2023-06-22T16:02:59;100067.72;;;32.26;46.78
9035;BME280;4552;43.422;24.592;2023-06-22T16:05:26;100085.34;;;32.40;47.35
9035;BME280;4552;43.422;24.592;2023-06-22T16:07:55;100081.59;;;32.58;46.24
9035;BME280;4552;43.422;24.592;2023-06-22T16:10:24;100082.75;;;32.73;45.35
9035;BME280;4552;43.422;24.592;2023-06-22T16:12:53;100086.41;;;32.64;45.42
9035;BME280;4552;43.422;24.592;2023-06-22T16:15:20;100089.16;;;32.72;44.82
9035;BME280;4552;43.422;24.592;2023-06-22T16:17:47;100104.59;;;32.89;44.81
9035;BME280;4552;43.422;24.592;2023-06-22T16:20:14;100088.59;;;32.86;44.05
9035;BME280;4552;43.422;24.592;2023-06-22T16:22:43;100095.34;;;32.82;44.50
9035;BME280;4552;43.422;24.592;2023-06-22T16:25:11;100089.78;;;32.66;45.07
9035;BME280;4552;43.422;24.592;2023-06-22T16:27:41;100081.44;;;32.60;44.65
9035;BME280;4552;43.422;24.592;2023-06-22T16:30:08;100081.53;;;32.50;44.84
9035;BME280;4552;43.422;24.592;2023-06-22T16:32:35;100086.25;;;32.48;46.21
9035;BME280;4552;43.422;24.592;2023-06-22T16:35:02;100076.66;;;32.19;47.39
9035;BME280;4552;43.422;24.592;2023-06-22T16:37:30;100093.28;;;32.06;48.23
9035;BME280;4552;43.422;24.592;2023-06-22T16:50:22;100095.41;;;31.85;51.00
9035;BME280;4552;43.422;24.592;2023-06-22T16:52:53;100083.03;;;31.73;51.66
9035;BME280;4552;43.422;24.592;2023-06-22T16:55:21;100090.63;;;31.69;51.49
9035;BME280;4552;43.422;24.592;2023-06-22T16:57:50;100096.38;;;31.57;53.01
9035;BME280;4552;43.422;24.592;2023-06-22T17:00:18;100097.41;;;31.56;53.00
9035;BME280;4552;43.422;24.592;2023-06-22T17:02:47;100102.69;;;31.75;52.69
9035;BME280;4552;43.422;24.592;2023-06-22T17:05:15;100095.06;;;31.61;53.90
9035;BME280;4552;43.422;24.592;2023-06-22T17:07:47;100104.38;;;31.49;53.79
9035;BME280;4552;43.422;24.592;2023-06-22T17:10:15;100106.50;;;31.09;56.34
9035;BME280;4552;43.422;24.592;2023-06-22T17:12:43;100100.78;;;31.12;57.01
9035;BME280;4552;43.422;24.592;2023-06-22T17:15:10;100086.63;;;30.72;58.18
9035;BME280;4552;43.422;24.592;2023-06-22T17:17:39;100098.59;;;30.79;58.27
9035;BME280;4552;43.422;24.592;2023-06-22T17:20:07;100089.50;;;30.51;60.03
9035;BME280;4552;43.422;24.592;2023-06-22T17:23:10;100088.22;;;30.46;60.48
9035;BME280;4552;43.422;24.592;2023-06-22T17:25:39;100090.06;;;30.55;59.91
9035;BME280;4552;43.422;24.592;2023-06-22T17:28:06;100101.03;;;30.63;60.70
9035;BME280;4552;43.422;24.592;2023-06-22T17:30:37;100097.75;;;30.31;62.48
9035;BME280;4552;43.422;24.592;2023-06-22T17:33:08;100076.28;;;30.19;64.38
9035;BME280;4552;43.422;24.592;2023-06-22T17:35:45;100079.78;;;30.10;67.58
9035;BME280;4552;43.422;24.592;2023-06-22T17:38:21;100069.84;;;30.01;66.25
9035;BME280;4552;43.422;24.592;2023-06-22T17:40:49;100078.78;;;29.92;67.33
9035;BME280;4552;43.422;24.592;2023-06-22T17:43:18;100075.94;;;30.03;66.11
9035;BME280;4552;43.422;24.592;2023-06-22T17:45:46;100084.63;;;30.07;66.84
9035;BME280;4552;43.422;24.592;2023-06-22T17:48:13;100076.53;;;30.16;65.53
9035;BME280;4552;43.422;24.592;2023-06-22T17:50:46;100066.38;;;29.80;68.67
9035;BME280;4552;43.422;24.592;2023-06-22T17:53:13;100065.50;;;29.70;69.76
9035;BME280;4552;43.422;24.592;2023-06-22T17:55:41;100075.41;;;29.60;70.20
9035;BME280;4552;43.422;24.592;2023-06-22T17:58:09;100070.53;;;29.84;67.23
9035;BME280;4552;43.422;24.592;2023-06-22T18:00:36;100082.91;;;29.96;66.48
9035;BME280;4552;43.422;24.592;2023-06-22T18:03:04;100069.78;;;29.73;64.85
9035;BME280;4552;43.422;24.592;2023-06-22T18:05:32;100073.41;;;29.62;65.97
9035;BME280;4552;43.422;24.592;2023-06-22T18:08:01;100069.97;;;29.51;64.94
9035;BME280;4552;43.422;24.592;2023-06-22T18:10:30;100071.63;;;29.42;61.85
9035;BME280;4552;43.422;24.592;2023-06-22T18:13:00;100078.47;;;29.46;61.39
9035;BME280;4552;43.422;24.592;2023-06-22T18:15:29;100076.75;;;29.36;61.82
9035;BME280;4552;43.422;24.592;2023-06-22T18:17:58;100076.09;;;29.23;65.56
9035;BME280;4552;43.422;24.592;2023-06-22T18:20:26;100080.81;;;29.21;64.84
9035;BME280;4552;43.422;24.592;2023-06-22T18:22:53;100082.22;;;29.04;65.19
9035;BME280;4552;43.422;24.592;2023-06-22T18:25:21;100081.06;;;28.97;60.57
9035;BME280;4552;43.422;24.592;2023-06-22T18:27:48;100090.16;;;28.96;67.33
9035;BME280;4552;43.422;24.592;2023-06-22T18:30:20;100081.31;;;28.94;66.90
9035;BME280;4552;43.422;24.592;2023-06-22T18:32:48;100090.22;;;28.85;67.57
9035;BME280;4552;43.422;24.592;2023-06-22T18:35:15;100091.06;;;28.65;68.08
9035;BME280;4552;43.422;24.592;2023-06-22T18:37:42;100088.69;;;28.51;68.17
9035;BME280;4552;43.422;24.592;2023-06-22T18:43:42;100092.44;;;28.28;68.44
9035;BME280;4552;43.422;24.592;2023-06-22T18:46:35;100093.34;;;28.49;68.38
9035;BME280;4552;43.422;24.592;2023-06-22T18:49:10;100101.00;;;28.33;69.13
9035;BME280;4552;43.422;24.592;2023-06-22T18:51:52;100106.38;;;27.79;72.18
9035;BME280;4552;43.422;24.592;2023-06-22T18:54:22;100097.94;;;27.73;71.17
9035;BME280;4552;43.422;24.592;2023-06-22T18:56:54;100121.03;;;27.86;71.67
9035;BME280;4552;43.422;24.592;2023-06-22T18:59:42;100127.53;;;27.73;72.85
9035;BME280;4552;43.422;24.592;2023-06-22T19:02:12;100123.53;;;27.67;72.42
9035;BME280;4552;43.422;24.592;2023-06-22T19:04:41;100131.72;;;27.44;73.20
9035;BME280;4552;43.422;24.592;2023-06-22T19:07:09;100124.66;;;27.65;72.94
9035;BME280;4552;43.422;24.592;2023-06-22T19:32:59;100113.06;;;26.85;76.64
9035;BME280;4552;43.422;24.592;2023-06-22T19:35:28;100114.94;;;26.96;76.16
9035;BME280;4552;43.422;24.592;2023-06-22T19:37:55;100106.47;;;26.89;77.28
9035;BME280;4552;43.422;24.592;2023-06-22T19:40:22;100108.78;;;26.83;77.73
9035;BME280;4552;43.422;24.592;2023-06-22T19:42:53;100117.41;;;26.64;79.86
9035;BME280;4552;43.422;24.592;2023-06-22T19:45:21;100116.22;;;26.45;81.61
9035;BME280;4552;43.422;24.592;2023-06-22T19:47:48;100119.81;;;26.09;82.59
9035;BME280;4552;43.422;24.592;2023-06-22T19:50:20;100121.94;;;26.17;82.59
9035;BME280;4552;43.422;24.592;2023-06-22T19:52:59;100118.50;;;26.38;81.81
9035;BME280;4552;43.422;24.592;2023-06-22T19:55:26;100114.56;;;26.08;82.50
9035;BME280;4552;43.422;24.592;2023-06-22T19:57:53;100118.63;;;26.13;82.71
9035;BME280;4552;43.422;24.592;2023-06-22T20:00:21;100106.41;;;26.09;81.84
9035;BME280;4552;43.422;24.592;2023-06-22T20:02:50;100116.19;;;26.10;82.12
9035;BME280;4552;43.422;24.592;2023-06-22T20:05:24;100108.50;;;26.17;81.35
9035;BME280;4552;43.422;24.592;2023-06-22T20:07:51;100103.78;;;26.20;81.53
9035;BME280;4552;43.422;24.592;2023-06-22T20:17:04;100117.78;;;26.13;81.00
9035;BME280;4552;43.422;24.592;2023-06-22T20:19:34;100125.13;;;26.22;81.93
9035;BME280;4552;43.422;24.592;2023-06-22T20:22:07;100124.69;;;26.28;81.99
9035;BME280;4552;43.422;24.592;2023-06-22T21:09:50;100114.63;;;25.09;92.67
9035;BME280;4552;43.422;24.592;2023-06-22T21:12:17;100119.88;;;24.98;93.44
9035;BME280;4552;43.422;24.592;2023-06-22T21:14:44;100116.66;;;24.93;94.70
9035;BME280;4552;43.422;24.592;2023-06-22T21:17:11;100105.28;;;25.02;93.64
9035;BME280;4552;43.422;24.592;2023-06-22T21:19:38;100104.66;;;24.98;94.66
9035;BME280;4552;43.422;24.592;2023-06-22T21:22:06;100104.47;;;25.01;94.44
9035;BME280;4552;43.422;24.592;2023-06-22T21:24:33;100105.28;;;25.02;95.31
9035;BME280;4552;43.422;24.592;2023-06-22T21:27:02;100092.75;;;24.90;96.84
9035;BME280;4552;43.422;24.592;2023-06-22T21:29:29;100100.78;;;24.90;97.04
9035;BME280;4552;43.422;24.592;2023-06-22T21:31:56;100103.38;;;24.79;97.20
9035;BME280;4552;43.422;24.592;2023-06-22T21:34:22;100094.81;;;24.74;98.07
9035;BME280;4552;43.422;24.592;2023-06-22T21:36:49;100090.72;;;24.68;98.27
9035;BME280;4552;43.422;24.592;2023-06-22T21:39:16;100090.31;;;24.74;97.45
9035;BME280;4552;43.422;24.592;2023-06-22T21:41:44;100101.66;;;24.78;97.72
9035;BME280;4552;43.422;24.592;2023-06-22T21:44:12;100100.78;;;24.90;97.17
9035;BME280;4552;43.422;24.592;2023-06-22T21:46:39;100104.88;;;24.95;97.20
9035;BME280;4552;43.422;24.592;2023-06-22T21:49:06;100095.88;;;24.96;97.30
9035;BME280;4552;43.422;24.592;2023-06-22T21:51:32;100087.72;;;24.85;97.55
9035;BME280;4552;43.422;24.592;2023-06-22T21:53:59;100095.00;;;24.71;98.81
9035;BME280;4552;43.422;24.592;2023-06-22T22:18:06;100058.97;;;24.62;99.32
9035;BME280;4552;43.422;24.592;2023-06-22T22:20:33;100077.41;;;24.54;99.02
9035;BME280;4552;43.422;24.592;2023-06-22T22:23:00;100071.03;;;24.69;98.46
9035;BME280;4552;43.422;24.592;2023-06-22T22:25:27;100064.31;;;24.62;98.52
9035;BME280;4552;43.422;24.592;2023-06-22T22:27:56;100069.91;;;24.47;100.00
9035;BME280;4552;43.422;24.592;2023-06-22T22:30:23;100070.94;;;24.44;100.00
9035;BME280;4552;43.422;24.592;2023-06-22T22:32:50;100067.75;;;24.39;100.00
9035;BME280;4552;43.422;24.592;2023-06-22T22:35:18;100065.91;;;24.40;100.00
9035;BME280;4552;43.422;24.592;2023-06-22T22:37:45;100066.75;;;24.28;100.00
9035;BME280;4552;43.422;24.592;2023-06-22T23:03:46;100052.66;;;23.99;100.00
9035;BME280;4552;43.422;24.592;2023-06-22T23:06:13;100052.59;;;24.13;100.00
9035;BME280;4552;43.422;24.592;2023-06-22T23:08:40;100036.13;;;24.19;100.00
9035;BME280;4552;43.422;24.592;2023-06-22T23:40:07;100036.50;;;23.60;100.00
9035;BME280;4552;43.422;24.592;2023-06-22T23:42:42;100036.59;;;23.58;100.00
9035;BME280;4552;43.422;24.592;2023-06-22T23:45:14;100037.59;;;23.43;100.00
9035;BME280;4552;43.422;24.592;2023-06-22T23:47:43;100029.03;;;23.38;100.00
9035;BME280;4552;43.422;24.592;2023-06-22T23:50:10;100025.81;;;23.33;100.00
9035;BME280;4552;43.422;24.592;2023-06-22T23:52:38;100042.75;;;23.46;100.00